Borden, Indiana
Current Conditions -  °F | °C
As of 5:19 AM on Tuesday 21 Oct 2014 (Local Time) from KLOU Reporting Station
Haze Haze  
Wind Chill: 46°   Ceiling: 200
Heat Index: 46°   Visibility: 0.75mi
Dew Point: 45°   Wind: 0mph
Humidity: 96%   Direction: NA
Pressure: 29.98"   Gusts: NA
Location:  38.47°N, 85.95°W
Report Text: KLOU 210919Z AUTO 00000KT 3/4SM BR VV002 08/07 A2998 RMK AO2 T00780072
Loading
Personal Weather Stations






























Interactive Weather Map
Tropical Storm Tracking
New forecast layout! Learn more

10-Day Weather Forecast

Advertisements
Track Severe Weather on mobile